sensor_id;sensor_type;location;lat;lon;timestamp;pressure;altitude;pressure_sealevel;temperature;humidity
74895;BME280;63447;49.446;8.666;2022-12-18T00:01:22;101760.16;;;-7.09;85.04
74895;BME280;63447;49.446;8.666;2022-12-18T00:03:52;101754.25;;;-6.90;83.55
74895;BME280;63447;49.446;8.666;2022-12-18T00:06:18;101751.31;;;-6.80;82.80
74895;BME280;63447;49.446;8.666;2022-12-18T00:08:49;101747.59;;;-6.94;83.04
74895;BME280;63447;49.446;8.666;2022-12-18T00:11:22;101754.19;;;-6.82;83.09
74895;BME280;63447;49.446;8.666;2022-12-18T00:13:49;101752.69;;;-6.85;83.04
74895;BME280;63447;49.446;8.666;2022-12-18T00:16:19;101755.19;;;-6.83;83.27
74895;BME280;63447;49.446;8.666;2022-12-18T00:18:51;101737.16;;;-6.89;82.97
74895;BME280;63447;49.446;8.666;2022-12-18T00:21:18;101754.19;;;-6.82;83.06
74895;BME280;63447;49.446;8.666;2022-12-18T00:23:44;101750.78;;;-6.76;82.20
74895;BME280;63447;49.446;8.666;2022-12-18T00:26:11;101768.72;;;-6.62;82.02
74895;BME280;63447;49.446;8.666;2022-12-18T00:28:37;101743.09;;;-6.79;81.26
74895;BME280;63447;49.446;8.666;2022-12-18T00:31:13;101768.69;;;-6.91;81.25
74895;BME280;63447;49.446;8.666;2022-12-18T00:33:41;101760.22;;;-7.18;83.95
74895;BME280;63447;49.446;8.666;2022-12-18T00:36:11;101757.50;;;-6.95;82.44
74895;BME280;63447;49.446;8.666;2022-12-18T00:38:38;101751.94;;;-6.93;81.97
74895;BME280;63447;49.446;8.666;2022-12-18T00:41:07;101760.38;;;-6.81;82.53
74895;BME280;63447;49.446;8.666;2022-12-18T00:43:39;101752.00;;;-7.01;82.00
74895;BME280;63447;49.446;8.666;2022-12-18T00:46:05;101758.06;;;-6.85;82.28
74895;BME280;63447;49.446;8.666;2022-12-18T00:48:31;101765.06;;;-6.98;82.69
74895;BME280;63447;49.446;8.666;2022-12-18T00:50:57;101763.63;;;-6.86;82.52
74895;BME280;63447;49.446;8.666;2022-12-18T00:53:22;101752.47;;;-7.12;82.40
74895;BME280;63447;49.446;8.666;2022-12-18T00:55:50;101772.69;;;-6.87;82.52
74895;BME280;63447;49.446;8.666;2022-12-18T00:58:22;101768.84;;;-7.07;81.73
74895;BME280;63447;49.446;8.666;2022-12-18T01:00:47;101768.03;;;-6.93;81.45
74895;BME280;63447;49.446;8.666;2022-12-18T01:03:13;101782.56;;;-6.88;82.38
74895;BME280;63447;49.446;8.666;2022-12-18T01:05:44;101781.47;;;-6.78;81.81
74895;BME280;63447;49.446;8.666;2022-12-18T01:08:12;101764.81;;;-6.89;79.83
74895;BME280;63447;49.446;8.666;2022-12-18T01:10:43;101767.84;;;-7.06;82.73
74895;BME280;63447;49.446;8.666;2022-12-18T01:13:10;101775.34;;;-7.02;83.26
74895;BME280;63447;49.446;8.666;2022-12-18T01:15:38;101764.69;;;-7.10;81.80
74895;BME280;63447;49.446;8.666;2022-12-18T01:18:07;101744.44;;;-6.98;81.26
74895;BME280;63447;49.446;8.666;2022-12-18T01:20:32;101747.94;;;-6.97;81.10
74895;BME280;63447;49.446;8.666;2022-12-18T01:23:00;101745.38;;;-6.91;81.02
74895;BME280;63447;49.446;8.666;2022-12-18T01:25:25;101737.25;;;-6.82;80.89
74895;BME280;63447;49.446;8.666;2022-12-18T01:27:50;101748.81;;;-6.82;81.35
74895;BME280;63447;49.446;8.666;2022-12-18T01:30:16;101749.84;;;-6.83;81.06
74895;BME280;63447;49.446;8.666;2022-12-18T01:32:41;101719.47;;;-6.98;80.42
74895;BME280;63447;49.446;8.666;2022-12-18T01:35:07;101726.13;;;-7.09;81.22
74895;BME280;63447;49.446;8.666;2022-12-18T01:37:35;101759.69;;;-6.98;81.37
74895;BME280;63447;49.446;8.666;2022-12-18T01:40:00;101746.38;;;-7.06;80.84
74895;BME280;63447;49.446;8.666;2022-12-18T01:42:28;101763.56;;;-7.01;80.93
74895;BME280;63447;49.446;8.666;2022-12-18T01:47:39;101786.88;;;-7.01;82.19
74895;BME280;63447;49.446;8.666;2022-12-18T01:50:17;101789.38;;;-7.00;81.78
74895;BME280;63447;49.446;8.666;2022-12-18T01:52:48;101783.41;;;-7.02;81.82
74895;BME280;63447;49.446;8.666;2022-12-18T01:55:16;101776.63;;;-6.98;81.55
74895;BME280;63447;49.446;8.666;2022-12-18T01:57:43;101779.88;;;-7.02;81.96
74895;BME280;63447;49.446;8.666;2022-12-18T02:00:16;101745.56;;;-7.07;81.19
74895;BME280;63447;49.446;8.666;2022-12-18T02:02:43;101762.72;;;-7.31;83.79
74895;BME280;63447;49.446;8.666;2022-12-18T02:05:10;101752.16;;;-7.32;82.14
74895;BME280;63447;49.446;8.666;2022-12-18T02:08:08;101759.16;;;-7.08;82.00
74895;BME280;63447;49.446;8.666;2022-12-18T02:11:00;101765.91;;;-6.98;81.01
74895;BME280;63447;49.446;8.666;2022-12-18T02:13:53;101774.13;;;-6.99;81.09
74895;BME280;63447;49.446;8.666;2022-12-18T02:19:06;101769.03;;;-7.09;80.35
74895;BME280;63447;49.446;8.666;2022-12-18T02:24:35;101763.09;;;-7.19;81.21
74895;BME280;63447;49.446;8.666;2022-12-18T02:27:08;101782.94;;;-7.05;81.92
74895;BME280;63447;49.446;8.666;2022-12-18T02:32:18;101781.13;;;-7.28;81.12
74895;BME280;63447;49.446;8.666;2022-12-18T02:34:49;101790.75;;;-7.19;80.30
74895;BME280;63447;49.446;8.666;2022-12-18T02:37:19;101769.97;;;-7.39;82.48
74895;BME280;63447;49.446;8.666;2022-12-18T02:39:47;101770.00;;;-7.62;83.41
74895;BME280;63447;49.446;8.666;2022-12-18T02:42:21;101751.44;;;-7.49;82.99
74895;BME280;63447;49.446;8.666;2022-12-18T02:44:51;101764.91;;;-7.34;81.69
74895;BME280;63447;49.446;8.666;2022-12-18T02:47:23;101753.06;;;-7.40;81.78
74895;BME280;63447;49.446;8.666;2022-12-18T02:57:39;101747.53;;;-7.61;82.73
74895;BME280;63447;49.446;8.666;2022-12-18T03:00:20;101745.00;;;-7.40;81.72
74895;BME280;63447;49.446;8.666;2022-12-18T03:02:59;101718.53;;;-7.58;81.20
74895;BME280;63447;49.446;8.666;2022-12-18T03:05:34;101706.34;;;-7.60;81.80
74895;BME280;63447;49.446;8.666;2022-12-18T03:08:07;101736.19;;;-7.48;81.95
74895;BME280;63447;49.446;8.666;2022-12-18T03:10:41;101746.75;;;-7.47;81.30
74895;BME280;63447;49.446;8.666;2022-12-18T03:13:12;101759.00;;;-7.53;81.93
74895;BME280;63447;49.446;8.666;2022-12-18T03:15:44;101756.09;;;-7.66;81.77
74895;BME280;63447;49.446;8.666;2022-12-18T03:18:26;101760.75;;;-7.82;81.53
74895;BME280;63447;49.446;8.666;2022-12-18T03:20:56;101784.97;;;-7.76;82.99
74895;BME280;63447;49.446;8.666;2022-12-18T03:23:29;101790.91;;;-7.58;82.56
74895;BME280;63447;49.446;8.666;2022-12-18T03:25:59;101792.63;;;-7.65;83.05
74895;BME280;63447;49.446;8.666;2022-12-18T03:28:28;101781.28;;;-7.75;82.97
74895;BME280;63447;49.446;8.666;2022-12-18T03:30:59;101767.81;;;-7.90;83.64
74895;BME280;63447;49.446;8.666;2022-12-18T03:33:30;101775.69;;;-7.65;81.35
74895;BME280;63447;49.446;8.666;2022-12-18T03:35:57;101748.75;;;-7.49;81.62
74895;BME280;63447;49.446;8.666;2022-12-18T03:38:25;101722.69;;;-7.78;80.16
74895;BME280;63447;49.446;8.666;2022-12-18T03:46:02;101758.16;;;-7.99;80.83
74895;BME280;63447;49.446;8.666;2022-12-18T03:48:36;101760.50;;;-7.96;81.67
74895;BME280;63447;49.446;8.666;2022-12-18T03:51:10;101754.25;;;-7.88;81.78
74895;BME280;63447;49.446;8.666;2022-12-18T03:56:15;101758.34;;;-7.77;81.84
74895;BME280;63447;49.446;8.666;2022-12-18T03:58:42;101758.97;;;-7.67;81.89
74895;BME280;63447;49.446;8.666;2022-12-18T04:01:11;101759.84;;;-7.75;82.39
74895;BME280;63447;49.446;8.666;2022-12-18T04:03:37;101764.16;;;-7.66;81.97
74895;BME280;63447;49.446;8.666;2022-12-18T04:06:05;101764.31;;;-7.67;82.35
74895;BME280;63447;49.446;8.666;2022-12-18T04:08:34;101775.69;;;-7.65;82.61
74895;BME280;63447;49.446;8.666;2022-12-18T04:11:01;101773.53;;;-7.70;81.42
74895;BME280;63447;49.446;8.666;2022-12-18T04:13:33;101769.91;;;-7.77;82.07
74895;BME280;63447;49.446;8.666;2022-12-18T04:15:59;101760.81;;;-7.68;82.35
74895;BME280;63447;49.446;8.666;2022-12-18T04:18:24;101771.13;;;-7.79;80.30
74895;BME280;63447;49.446;8.666;2022-12-18T04:20:49;101773.31;;;-7.83;82.19
74895;BME280;63447;49.446;8.666;2022-12-18T04:23:15;101768.38;;;-7.71;81.92
74895;BME280;63447;49.446;8.666;2022-12-18T04:25:42;101757.94;;;-7.66;81.70
74895;BME280;63447;49.446;8.666;2022-12-18T04:28:08;101767.06;;;-7.75;82.00
74895;BME280;63447;49.446;8.666;2022-12-18T04:30:33;101759.81;;;-7.67;79.90
74895;BME280;63447;49.446;8.666;2022-12-18T04:32:59;101726.03;;;-7.99;82.24
74895;BME280;63447;49.446;8.666;2022-12-18T04:35:26;101724.53;;;-7.78;81.50
74895;BME280;63447;49.446;8.666;2022-12-18T04:37:52;101738.50;;;-7.83;81.31
74895;BME280;63447;49.446;8.666;2022-12-18T04:40:17;101747.63;;;-7.77;81.66
74895;BME280;63447;49.446;8.666;2022-12-18T04:42:42;101735.16;;;-7.85;82.79
74895;BME280;63447;49.446;8.666;2022-12-18T04:45:10;101735.25;;;-7.78;82.04
74895;BME280;63447;49.446;8.666;2022-12-18T04:47:38;101735.25;;;-7.78;80.99
74895;BME280;63447;49.446;8.666;2022-12-18T04:50:06;101724.75;;;-7.80;81.05
74895;BME280;63447;49.446;8.666;2022-12-18T04:52:34;101727.28;;;-7.87;80.97
74895;BME280;63447;49.446;8.666;2022-12-18T04:55:02;101753.47;;;-7.74;80.27
74895;BME280;63447;49.446;8.666;2022-12-18T04:57:29;101747.94;;;-7.72;81.11
74895;BME280;63447;49.446;8.666;2022-12-18T05:00:00;101743.91;;;-7.91;80.68
74895;BME280;63447;49.446;8.666;2022-12-18T05:02:25;101749.03;;;-7.81;81.83
74895;BME280;63447;49.446;8.666;2022-12-18T05:04:52;101753.59;;;-7.67;81.34
74895;BME280;63447;49.446;8.666;2022-12-18T05:07:20;101749.22;;;-7.60;81.20
74895;BME280;63447;49.446;8.666;2022-12-18T05:09:48;101755.13;;;-7.50;80.90
74895;BME280;63447;49.446;8.666;2022-12-18T05:12:13;101774.72;;;-7.49;80.25
74895;BME280;63447;49.446;8.666;2022-12-18T05:14:38;101757.91;;;-7.58;80.16
74895;BME280;63447;49.446;8.666;2022-12-18T05:17:03;101773.72;;;-7.48;80.80
74895;BME280;63447;49.446;8.666;2022-12-18T05:19:29;101786.72;;;-7.37;79.94
74895;BME280;63447;49.446;8.666;2022-12-18T05:21:54;101768.38;;;-8.02;83.08
74895;BME280;63447;49.446;8.666;2022-12-18T05:24:19;101766.56;;;-7.79;81.55
74895;BME280;63447;49.446;8.666;2022-12-18T05:26:47;101792.66;;;-7.50;81.64
74895;BME280;63447;49.446;8.666;2022-12-18T05:29:13;101784.88;;;-7.60;80.47
74895;BME280;63447;49.446;8.666;2022-12-18T05:31:38;101762.19;;;-8.03;81.34
74895;BME280;63447;49.446;8.666;2022-12-18T05:34:08;101782.13;;;-8.05;83.56
74895;BME280;63447;49.446;8.666;2022-12-18T05:36:33;101785.88;;;-7.83;82.61
74895;BME280;63447;49.446;8.666;2022-12-18T05:38:59;101785.97;;;-7.77;82.60
74895;BME280;63447;49.446;8.666;2022-12-18T05:41:25;101785.22;;;-7.63;81.65
74895;BME280;63447;49.446;8.666;2022-12-18T05:43:51;101764.09;;;-7.80;82.18
74895;BME280;63447;49.446;8.666;2022-12-18T05:46:17;101765.19;;;-7.75;81.46
74895;BME280;63447;49.446;8.666;2022-12-18T05:48:46;101778.13;;;-7.78;82.31
74895;BME280;63447;49.446;8.666;2022-12-18T05:51:16;101770.53;;;-7.98;83.04
74895;BME280;63447;49.446;8.666;2022-12-18T05:53:43;101763.72;;;-7.77;82.14
74895;BME280;63447;49.446;8.666;2022-12-18T05:56:11;101753.31;;;-7.72;80.84
74895;BME280;63447;49.446;8.666;2022-12-18T05:58:37;101752.41;;;-7.65;80.33
74895;BME280;63447;49.446;8.666;2022-12-18T06:01:16;101738.13;;;-7.80;81.23
74895;BME280;63447;49.446;8.666;2022-12-18T06:03:42;101751.94;;;-7.91;82.13
74895;BME280;63447;49.446;8.666;2022-12-18T06:06:14;101755.44;;;-7.91;82.62
74895;BME280;63447;49.446;8.666;2022-12-18T06:08:42;101762.44;;;-7.81;81.80
74895;BME280;63447;49.446;8.666;2022-12-18T06:11:07;101765.63;;;-7.86;82.09
74895;BME280;63447;49.446;8.666;2022-12-18T06:13:33;101776.69;;;-7.89;81.47
74895;BME280;63447;49.446;8.666;2022-12-18T06:16:01;101776.88;;;-7.91;82.64
74895;BME280;63447;49.446;8.666;2022-12-18T06:18:27;101777.41;;;-7.95;82.36
74895;BME280;63447;49.446;8.666;2022-12-18T06:20:56;101779.19;;;-7.88;82.39
74895;BME280;63447;49.446;8.666;2022-12-18T06:23:24;101780.41;;;-7.98;82.48
74895;BME280;63447;49.446;8.666;2022-12-18T06:25:50;101789.13;;;-7.96;81.74
74895;BME280;63447;49.446;8.666;2022-12-18T06:28:15;101780.94;;;-8.03;82.43
74895;BME280;63447;49.446;8.666;2022-12-18T06:30:46;101789.97;;;-8.04;82.67
74895;BME280;63447;49.446;8.666;2022-12-18T06:33:15;101786.69;;;-8.06;82.44
74895;BME280;63447;49.446;8.666;2022-12-18T06:35:41;101796.19;;;-8.03;82.54
74895;BME280;63447;49.446;8.666;2022-12-18T06:38:08;101793.22;;;-8.08;81.89
74895;BME280;63447;49.446;8.666;2022-12-18T06:40:34;101805.34;;;-7.98;82.70
74895;BME280;63447;49.446;8.666;2022-12-18T06:42:59;101808.72;;;-8.04;81.71
74895;BME280;63447;49.446;8.666;2022-12-18T06:45:25;101789.03;;;-8.11;82.35
74895;BME280;63447;49.446;8.666;2022-12-18T06:47:50;101800.34;;;-8.01;82.22
74895;BME280;63447;49.446;8.666;2022-12-18T06:50:19;101808.84;;;-7.89;82.63
74895;BME280;63447;49.446;8.666;2022-12-18T06:52:46;101808.44;;;-8.09;82.64
74895;BME280;63447;49.446;8.666;2022-12-18T06:55:12;101808.66;;;-8.27;83.58
74895;BME280;63447;49.446;8.666;2022-12-18T06:57:37;101826.34;;;-8.09;82.69
74895;BME280;63447;49.446;8.666;2022-12-18T07:00:04;101839.34;;;-7.98;83.50
74895;BME280;63447;49.446;8.666;2022-12-18T07:02:31;101832.47;;;-7.93;82.68
74895;BME280;63447;49.446;8.666;2022-12-18T07:04:57;101842.38;;;-8.01;82.17
74895;BME280;63447;49.446;8.666;2022-12-18T07:07:22;101832.94;;;-7.89;82.33
74895;BME280;63447;49.446;8.666;2022-12-18T07:09:49;101838.19;;;-8.04;83.06
74895;BME280;63447;49.446;8.666;2022-12-18T07:12:17;101834.09;;;-7.83;82.54
74895;BME280;63447;49.446;8.666;2022-12-18T07:14:43;101818.38;;;-7.87;81.34
74895;BME280;63447;49.446;8.666;2022-12-18T07:17:08;101836.66;;;-7.98;81.25
74895;BME280;63447;49.446;8.666;2022-12-18T07:19:33;101840.53;;;-8.01;81.52
74895;BME280;63447;49.446;8.666;2022-12-18T07:21:59;101824.22;;;-8.22;82.29
74895;BME280;63447;49.446;8.666;2022-12-18T07:24:24;101833.94;;;-8.29;82.27
74895;BME280;63447;49.446;8.666;2022-12-18T07:26:50;101831.25;;;-8.29;82.11
74895;BME280;63447;49.446;8.666;2022-12-18T07:29:15;101851.00;;;-8.22;82.71
74895;BME280;63447;49.446;8.666;2022-12-18T07:31:45;101853.66;;;-8.22;82.70
74895;BME280;63447;49.446;8.666;2022-12-18T07:34:12;101854.34;;;-8.20;83.23
74895;BME280;63447;49.446;8.666;2022-12-18T07:36:38;101860.88;;;-8.23;81.06
74895;BME280;63447;49.446;8.666;2022-12-18T07:39:03;101843.56;;;-8.43;81.98
74895;BME280;63447;49.446;8.666;2022-12-18T07:41:29;101852.09;;;-8.47;84.65
74895;BME280;63447;49.446;8.666;2022-12-18T07:43:54;101840.41;;;-8.46;84.52
74895;BME280;63447;49.446;8.666;2022-12-18T07:46:20;101838.94;;;-8.26;83.04
74895;BME280;63447;49.446;8.666;2022-12-18T07:48:45;101839.75;;;-8.17;82.19
74895;BME280;63447;49.446;8.666;2022-12-18T07:51:16;101809.69;;;-8.28;82.22
74895;BME280;63447;49.446;8.666;2022-12-18T07:53:42;101827.38;;;-8.10;82.70
74895;BME280;63447;49.446;8.666;2022-12-18T07:56:09;101831.47;;;-8.00;81.53
74895;BME280;63447;49.446;8.666;2022-12-18T07:58:38;101835.88;;;-8.07;81.60
74895;BME280;63447;49.446;8.666;2022-12-18T08:01:10;101840.19;;;-7.98;81.61
74895;BME280;63447;49.446;8.666;2022-12-18T08:03:40;101841.56;;;-7.79;80.95
74895;BME280;63447;49.446;8.666;2022-12-18T08:06:07;101847.22;;;-7.66;79.69
74895;BME280;63447;49.446;8.666;2022-12-18T08:08:33;101844.47;;;-7.80;80.38
74895;BME280;63447;49.446;8.666;2022-12-18T08:10:59;101843.34;;;-7.63;79.26
74895;BME280;63447;49.446;8.666;2022-12-18T08:13:25;101837.16;;;-7.64;79.04
74895;BME280;63447;49.446;8.666;2022-12-18T08:15:57;101832.25;;;-7.83;80.67
74895;BME280;63447;49.446;8.666;2022-12-18T08:18:23;101828.75;;;-7.83;80.06
74895;BME280;63447;49.446;8.666;2022-12-18T08:20:51;101828.28;;;-7.64;79.50
74895;BME280;63447;49.446;8.666;2022-12-18T08:23:17;101834.44;;;-7.87;79.26
74895;BME280;63447;49.446;8.666;2022-12-18T08:25:42;101846.50;;;-7.60;79.49
74895;BME280;63447;49.446;8.666;2022-12-18T08:28:10;101844.78;;;-7.53;79.71
74895;BME280;63447;49.446;8.666;2022-12-18T08:30:36;101841.38;;;-7.46;79.80
74895;BME280;63447;49.446;8.666;2022-12-18T08:33:02;101854.47;;;-6.83;85.36
74895;BME280;63447;49.446;8.666;2022-12-18T08:35:28;101856.09;;;-6.15;85.53
74895;BME280;63447;49.446;8.666;2022-12-18T08:37:55;101854.91;;;-5.40;86.11
74895;BME280;63447;49.446;8.666;2022-12-18T08:40:21;101846.09;;;-5.13;78.32
74895;BME280;63447;49.446;8.666;2022-12-18T08:42:46;101851.44;;;-5.20;71.84
74895;BME280;63447;49.446;8.666;2022-12-18T08:45:33;101839.75;;;-5.84;72.17
74895;BME280;63447;49.446;8.666;2022-12-18T08:47:59;101832.63;;;-5.56;73.91
74895;BME280;63447;49.446;8.666;2022-12-18T08:50:24;101816.44;;;-5.20;72.10
74895;BME280;63447;49.446;8.666;2022-12-18T08:52:50;101806.38;;;-5.11;71.45
74895;BME280;63447;49.446;8.666;2022-12-18T08:55:15;101822.97;;;-4.80;71.55
74895;BME280;63447;49.446;8.666;2022-12-18T08:57:40;101817.28;;;-4.70;70.45
74895;BME280;63447;49.446;8.666;2022-12-18T09:00:06;101821.13;;;-4.51;68.56
74895;BME280;63447;49.446;8.666;2022-12-18T09:02:41;101807.50;;;-4.43;69.02
74895;BME280;63447;49.446;8.666;2022-12-18T09:05:07;101803.06;;;-4.23;68.65
74895;BME280;63447;49.446;8.666;2022-12-18T09:10:53;101721.88;;;-3.87;66.92
74895;BME280;63447;49.446;8.666;2022-12-18T09:17:05;101691.47;;;-3.48;64.18
74895;BME280;63447;49.446;8.666;2022-12-18T09:20:31;101774.06;;;-2.67;64.26
74895;BME280;63447;49.446;8.666;2022-12-18T09:23:21;101738.16;;;-2.94;62.77
74895;BME280;63447;49.446;8.666;2022-12-18T09:26:10;101730.47;;;-2.13;62.00
74895;BME280;63447;49.446;8.666;2022-12-18T09:31:27;101733.38;;;-2.15;61.33
74895;BME280;63447;49.446;8.666;2022-12-18T09:33:57;101751.41;;;-2.02;62.18
74895;BME280;63447;49.446;8.666;2022-12-18T09:36:28;101754.66;;;-1.87;60.27
74895;BME280;63447;49.446;8.666;2022-12-18T09:38:58;101799.38;;;-1.15;59.77
74895;BME280;63447;49.446;8.666;2022-12-18T09:41:43;101775.00;;;-1.15;58.38
74895;BME280;63447;49.446;8.666;2022-12-18T09:47:17;101809.84;;;-0.07;55.22
74895;BME280;63447;49.446;8.666;2022-12-18T09:49:58;101807.56;;;0.08;54.53
74895;BME280;63447;49.446;8.666;2022-12-18T09:52:33;101753.13;;;-0.27;54.80
74895;BME280;63447;49.446;8.666;2022-12-18T09:55:34;101812.94;;;-0.04;54.14
74895;BME280;63447;49.446;8.666;2022-12-18T10:01:00;101790.25;;;0.69;52.46
74895;BME280;63447;49.446;8.666;2022-12-18T10:03:28;101805.50;;;1.47;49.78
74895;BME280;63447;49.446;8.666;2022-12-18T10:26:31;101828.91;;;4.14;43.27
74895;BME280;63447;49.446;8.666;2022-12-18T10:29:00;101793.53;;;3.63;44.39
74895;BME280;63447;49.446;8.666;2022-12-18T10:31:29;101837.41;;;4.39;43.46
74895;BME280;63447;49.446;8.666;2022-12-18T10:33:57;101825.03;;;3.93;43.52
74895;BME280;63447;49.446;8.666;2022-12-18T10:36:32;101813.34;;;4.14;44.41
74895;BME280;63447;49.446;8.666;2022-12-18T10:39:19;101816.06;;;4.14;45.84
74895;BME280;63447;49.446;8.666;2022-12-18T10:42:30;101815.16;;;4.30;43.72
74895;BME280;63447;49.446;8.666;2022-12-18T10:45:12;101789.00;;;2.85;47.10
74895;BME280;63447;49.446;8.666;2022-12-18T10:47:58;101757.84;;;3.15;46.28
74895;BME280;63447;49.446;8.666;2022-12-18T10:50:33;101787.28;;;3.68;45.14
74895;BME280;63447;49.446;8.666;2022-12-18T10:53:05;101739.53;;;3.10;46.21
74895;BME280;63447;49.446;8.666;2022-12-18T10:55:36;101742.88;;;3.34;46.89
74895;BME280;63447;49.446;8.666;2022-12-18T10:58:37;101768.81;;;3.53;46.12
74895;BME280;63447;49.446;8.666;2022-12-18T11:01:20;101794.59;;;4.50;45.39
74895;BME280;63447;49.446;8.666;2022-12-18T11:04:07;101782.06;;;3.83;45.41
74895;BME280;63447;49.446;8.666;2022-12-18T11:07:01;101782.97;;;3.89;46.28
74895;BME280;63447;49.446;8.666;2022-12-18T11:09:30;101803.00;;;4.70;44.68
74895;BME280;63447;49.446;8.666;2022-12-18T11:12:02;101779.16;;;4.60;43.12
74895;BME280;63447;49.446;8.666;2022-12-18T11:14:58;101784.63;;;5.24;41.91
74895;BME280;63447;49.446;8.666;2022-12-18T11:20:41;101803.19;;;6.59;38.78
74895;BME280;63447;49.446;8.666;2022-12-18T11:23:20;101815.59;;;7.02;39.31
74895;BME280;63447;49.446;8.666;2022-12-18T11:29:08;101746.56;;;6.12;40.09
74895;BME280;63447;49.446;8.666;2022-12-18T11:31:34;101804.94;;;6.12;41.13
74895;BME280;63447;49.446;8.666;2022-12-18T11:34:09;101812.09;;;5.71;42.44
74895;BME280;63447;49.446;8.666;2022-12-18T11:36:42;101809.06;;;6.15;40.60
74895;BME280;63447;49.446;8.666;2022-12-18T11:39:15;101798.13;;;6.20;39.75
74895;BME280;63447;49.446;8.666;2022-12-18T11:42:08;101799.09;;;5.99;41.36
74895;BME280;63447;49.446;8.666;2022-12-18T11:44:45;101807.88;;;5.96;42.13
74895;BME280;63447;49.446;8.666;2022-12-18T11:52:51;101792.66;;;6.30;41.15
74895;BME280;63447;49.446;8.666;2022-12-18T12:00:26;101757.53;;;6.12;41.86
74895;BME280;63447;49.446;8.666;2022-12-18T12:06:00;101764.84;;;5.91;42.97
74895;BME280;63447;49.446;8.666;2022-12-18T12:11:30;101783.16;;;4.80;45.42
74895;BME280;63447;49.446;8.666;2022-12-18T12:25:10;101779.34;;;3.66;49.87
74895;BME280;63447;49.446;8.666;2022-12-18T12:30:38;101773.91;;;3.66;49.82
74895;BME280;63447;49.446;8.666;2022-12-18T12:38:47;101760.94;;;2.85;52.55
74895;BME280;63447;49.446;8.666;2022-12-18T12:41:19;101777.00;;;2.69;53.50
74895;BME280;63447;49.446;8.666;2022-12-18T12:44:09;101777.00;;;2.86;51.35
74895;BME280;63447;49.446;8.666;2022-12-18T12:46:43;101749.06;;;1.65;54.09
74895;BME280;63447;49.446;8.666;2022-12-18T12:49:15;101735.72;;;1.06;57.23
74895;BME280;63447;49.446;8.666;2022-12-18T12:51:45;101731.97;;;1.30;57.39
74895;BME280;63447;49.446;8.666;2022-12-18T12:54:31;101745.31;;;0.55;58.68
74895;BME280;63447;49.446;8.666;2022-12-18T13:03:08;101712.34;;;-0.20;58.31
74895;BME280;63447;49.446;8.666;2022-12-18T13:05:49;101702.44;;;-0.26;61.10
74895;BME280;63447;49.446;8.666;2022-12-18T13:08:30;101712.00;;;0.06;58.36
74895;BME280;63447;49.446;8.666;2022-12-18T13:10:58;101713.72;;;0.19;59.92
74895;BME280;63447;49.446;8.666;2022-12-18T13:16:20;101683.13;;;-0.73;60.98
74895;BME280;63447;49.446;8.666;2022-12-18T13:18:51;101681.78;;;-0.46;60.93
74895;BME280;63447;49.446;8.666;2022-12-18T13:21:25;101690.66;;;-0.39;59.66
74895;BME280;63447;49.446;8.666;2022-12-18T13:23:52;101687.47;;;-0.17;60.11
74895;BME280;63447;49.446;8.666;2022-12-18T13:36:46;101691.03;;;0.66;63.24
74895;BME280;63447;49.446;8.666;2022-12-18T13:42:31;101690.63;;;0.40;63.38
74895;BME280;63447;49.446;8.666;2022-12-18T13:44:59;101673.25;;;0.29;63.28
74895;BME280;63447;49.446;8.666;2022-12-18T13:47:33;101669.09;;;0.26;63.64
74895;BME280;63447;49.446;8.666;2022-12-18T13:50:03;101672.22;;;0.00;63.69
74895;BME280;63447;49.446;8.666;2022-12-18T13:52:39;101665.81;;;-0.36;64.91
74895;BME280;63447;49.446;8.666;2022-12-18T13:55:10;101664.00;;;-0.42;65.52
74895;BME280;63447;49.446;8.666;2022-12-18T13:57:40;101672.59;;;-0.45;65.34
74895;BME280;63447;49.446;8.666;2022-12-18T14:00:32;101675.38;;;-0.70;66.73
74895;BME280;63447;49.446;8.666;2022-12-18T14:02:58;101683.34;;;-0.93;67.17
74895;BME280;63447;49.446;8.666;2022-12-18T14:07:52;101679.44;;;-1.22;67.75
74895;BME280;63447;49.446;8.666;2022-12-18T14:10:19;101679.75;;;-1.30;68.20
74895;BME280;63447;49.446;8.666;2022-12-18T14:12:50;101690.06;;;-1.45;68.97
74895;BME280;63447;49.446;8.666;2022-12-18T14:17:58;101703.53;;;-1.63;69.70
74895;BME280;63447;49.446;8.666;2022-12-18T14:20:35;101675.78;;;-1.84;70.13
74895;BME280;63447;49.446;8.666;2022-12-18T14:23:04;101684.16;;;-1.92;71.06
74895;BME280;63447;49.446;8.666;2022-12-18T14:25:34;101697.91;;;-1.93;71.25
74895;BME280;63447;49.446;8.666;2022-12-18T14:30:42;101700.06;;;-2.09;71.85
74895;BME280;63447;49.446;8.666;2022-12-18T14:35:39;101692.22;;;-2.23;72.57
74895;BME280;63447;49.446;8.666;2022-12-18T14:38:24;101687.44;;;-2.21;72.80
74895;BME280;63447;49.446;8.666;2022-12-18T14:41:16;101681.38;;;-2.17;71.21
74895;BME280;63447;49.446;8.666;2022-12-18T14:43:44;101679.56;;;-2.29;72.05
74895;BME280;63447;49.446;8.666;2022-12-18T14:46:47;101693.06;;;-2.29;72.02
74895;BME280;63447;49.446;8.666;2022-12-18T14:51:48;101694.06;;;-2.62;73.79
74895;BME280;63447;49.446;8.666;2022-12-18T14:54:16;101669.16;;;-2.84;74.26
74895;BME280;63447;49.446;8.666;2022-12-18T14:56:49;101654.88;;;-2.97;74.17
74895;BME280;63447;49.446;8.666;2022-12-18T14:59:23;101689.50;;;-2.81;75.20
74895;BME280;63447;49.446;8.666;2022-12-18T15:04:35;101679.78;;;-2.89;74.96
74895;BME280;63447;49.446;8.666;2022-12-18T15:07:11;101678.75;;;-3.01;75.33
74895;BME280;63447;49.446;8.666;2022-12-18T15:09:40;101660.28;;;-3.11;75.59
74895;BME280;63447;49.446;8.666;2022-12-18T15:12:34;101657.03;;;-3.39;76.60
74895;BME280;63447;49.446;8.666;2022-12-18T15:15:02;101663.00;;;-3.37;77.02
74895;BME280;63447;49.446;8.666;2022-12-18T15:17:28;101650.16;;;-3.42;77.07
74895;BME280;63447;49.446;8.666;2022-12-18T15:20:01;101668.84;;;-3.40;77.27
74895;BME280;63447;49.446;8.666;2022-12-18T15:22:35;101664.91;;;-3.44;77.50
74895;BME280;63447;49.446;8.666;2022-12-18T15:25:03;101660.53;;;-3.45;77.48
74895;BME280;63447;49.446;8.666;2022-12-18T15:27:35;101663.22;;;-3.58;77.35
74895;BME280;63447;49.446;8.666;2022-12-18T15:32:40;101643.31;;;-3.70;77.89
74895;BME280;63447;49.446;8.666;2022-12-18T15:35:14;101653.50;;;-3.66;77.59
74895;BME280;63447;49.446;8.666;2022-12-18T15:37:44;101629.41;;;-3.81;78.50